sensor_id;sensor_type;location;lat;lon;timestamp;temperature;humidity
45489;DHT22;31236;55.026;61.042;2023-05-10T00:01:11;0.60;61.60
45489;DHT22;31236;55.026;61.042;2023-05-10T00:03:42;0.60;62.20
45489;DHT22;31236;55.026;61.042;2023-05-10T00:06:14;0.50;62.20
45489;DHT22;31236;55.026;61.042;2023-05-10T00:08:45;0.50;61.90
45489;DHT22;31236;55.026;61.042;2023-05-10T00:11:15;0.50;62.10
45489;DHT22;31236;55.026;61.042;2023-05-10T00:13:46;0.50;62.00
45489;DHT22;31236;55.026;61.042;2023-05-10T00:16:17;0.40;62.50
45489;DHT22;31236;55.026;61.042;2023-05-10T00:18:51;0.40;62.90
45489;DHT22;31236;55.026;61.042;2023-05-10T00:21:21;0.40;63.00
45489;DHT22;31236;55.026;61.042;2023-05-10T00:23:51;0.40;63.10
45489;DHT22;31236;55.026;61.042;2023-05-10T00:26:21;0.40;63.20
45489;DHT22;31236;55.026;61.042;2023-05-10T00:28:51;0.40;63.30
45489;DHT22;31236;55.026;61.042;2023-05-10T00:31:23;0.40;63.40
45489;DHT22;31236;55.026;61.042;2023-05-10T00:33:54;0.40;63.20
45489;DHT22;31236;55.026;61.042;2023-05-10T00:36:24;0.50;63.10
45489;DHT22;31236;55.026;61.042;2023-05-10T00:38:55;0.60;63.00
45489;DHT22;31236;55.026;61.042;2023-05-10T00:41:29;0.60;63.10
45489;DHT22;31236;55.026;61.042;2023-05-10T00:44:01;0.60;63.50
45489;DHT22;31236;55.026;61.042;2023-05-10T00:46:31;0.60;63.30
45489;DHT22;31236;55.026;61.042;2023-05-10T00:49:02;0.70;63.20
45489;DHT22;31236;55.026;61.042;2023-05-10T00:51:32;0.80;63.30
45489;DHT22;31236;55.026;61.042;2023-05-10T00:54:03;0.90;63.30
45489;DHT22;31236;55.026;61.042;2023-05-10T00:56:33;1.00;62.90
45489;DHT22;31236;55.026;61.042;2023-05-10T00:59:04;1.10;62.30
45489;DHT22;31236;55.026;61.042;2023-05-10T01:01:35;1.10;62.90
45489;DHT22;31236;55.026;61.042;2023-05-10T01:04:06;1.00;63.10
45489;DHT22;31236;55.026;61.042;2023-05-10T01:06:40;1.00;62.90
45489;DHT22;31236;55.026;61.042;2023-05-10T01:09:11;1.00;63.60
45489;DHT22;31236;55.026;61.042;2023-05-10T01:11:43;1.10;64.00
45489;DHT22;31236;55.026;61.042;2023-05-10T01:14:18;1.20;64.00
45489;DHT22;31236;55.026;61.042;2023-05-10T01:16:49;1.30;64.10
45489;DHT22;31236;55.026;61.042;2023-05-10T01:19:39;1.40;64.40
45489;DHT22;31236;55.026;61.042;2023-05-10T01:25:10;1.40;64.70
45489;DHT22;31236;55.026;61.042;2023-05-10T01:43:07;1.50;65.00
45489;DHT22;31236;55.026;61.042;2023-05-10T01:48:28;1.60;65.40
45489;DHT22;31236;55.026;61.042;2023-05-10T01:51:00;1.70;65.30
45489;DHT22;31236;55.026;61.042;2023-05-10T01:53:31;1.80;64.90
45489;DHT22;31236;55.026;61.042;2023-05-10T01:56:04;1.90;65.40
45489;DHT22;31236;55.026;61.042;2023-05-10T01:58:36;2.00;65.60
45489;DHT22;31236;55.026;61.042;2023-05-10T02:01:06;2.10;65.80
45489;DHT22;31236;55.026;61.042;2023-05-10T02:03:39;2.20;65.80
45489;DHT22;31236;55.026;61.042;2023-05-10T02:06:11;2.30;65.80
45489;DHT22;31236;55.026;61.042;2023-05-10T02:08:43;2.40;65.70
45489;DHT22;31236;55.026;61.042;2023-05-10T02:11:15;2.60;65.70
45489;DHT22;31236;55.026;61.042;2023-05-10T02:13:48;2.70;65.60
45489;DHT22;31236;55.026;61.042;2023-05-10T02:16:18;2.90;65.60
45489;DHT22;31236;55.026;61.042;2023-05-10T02:18:50;3.00;65.50
45489;DHT22;31236;55.026;61.042;2023-05-10T02:21:22;3.10;65.10
45489;DHT22;31236;55.026;61.042;2023-05-10T02:23:54;3.20;65.00
45489;DHT22;31236;55.026;61.042;2023-05-10T02:26:26;3.30;65.00
45489;DHT22;31236;55.026;61.042;2023-05-10T02:28:57;3.40;64.70
45489;DHT22;31236;55.026;61.042;2023-05-10T02:31:28;3.50;64.30
45489;DHT22;31236;55.026;61.042;2023-05-10T02:34:00;3.60;64.00
45489;DHT22;31236;55.026;61.042;2023-05-10T02:36:31;3.70;63.50
45489;DHT22;31236;55.026;61.042;2023-05-10T02:39:02;3.90;62.90
45489;DHT22;31236;55.026;61.042;2023-05-10T02:41:34;4.00;62.50
45489;DHT22;31236;55.026;61.042;2023-05-10T02:44:06;4.20;61.80
45489;DHT22;31236;55.026;61.042;2023-05-10T02:46:36;4.30;61.30
45489;DHT22;31236;55.026;61.042;2023-05-10T02:49:06;4.50;60.80
45489;DHT22;31236;55.026;61.042;2023-05-10T02:51:41;4.60;60.20
45489;DHT22;31236;55.026;61.042;2023-05-10T02:54:29;4.70;59.70
45489;DHT22;31236;55.026;61.042;2023-05-10T02:57:01;5.00;59.20
45489;DHT22;31236;55.026;61.042;2023-05-10T02:59:33;5.10;58.40
45489;DHT22;31236;55.026;61.042;2023-05-10T03:02:03;5.20;57.80
45489;DHT22;31236;55.026;61.042;2023-05-10T03:04:34;5.40;57.60
45489;DHT22;31236;55.026;61.042;2023-05-10T03:07:04;5.50;57.40
45489;DHT22;31236;55.026;61.042;2023-05-10T03:09:34;5.60;57.10
45489;DHT22;31236;55.026;61.042;2023-05-10T03:15:31;5.90;56.20
45489;DHT22;31236;55.026;61.042;2023-05-10T03:20:58;6.30;54.60
45489;DHT22;31236;55.026;61.042;2023-05-10T03:23:51;6.50;53.90
45489;DHT22;31236;55.026;61.042;2023-05-10T03:26:57;6.60;53.70
45489;DHT22;31236;55.026;61.042;2023-05-10T03:28:55;6.80;53.10
45489;DHT22;31236;55.026;61.042;2023-05-10T03:31:26;6.90;52.80
45489;DHT22;31236;55.026;61.042;2023-05-10T03:33:56;7.00;52.40
45489;DHT22;31236;55.026;61.042;2023-05-10T03:36:26;7.10;51.80
45489;DHT22;31236;55.026;61.042;2023-05-10T03:38:56;7.30;51.40
45489;DHT22;31236;55.026;61.042;2023-05-10T03:41:27;7.40;51.30
45489;DHT22;31236;55.026;61.042;2023-05-10T03:43:57;7.60;51.20
45489;DHT22;31236;55.026;61.042;2023-05-10T03:46:27;7.80;50.80
45489;DHT22;31236;55.026;61.042;2023-05-10T03:48:57;7.90;50.20
45489;DHT22;31236;55.026;61.042;2023-05-10T03:51:27;8.10;49.90
45489;DHT22;31236;55.026;61.042;2023-05-10T03:53:58;8.20;49.60
45489;DHT22;31236;55.026;61.042;2023-05-10T03:56:30;8.30;48.70
45489;DHT22;31236;55.026;61.042;2023-05-10T03:58:59;8.40;48.30
45489;DHT22;31236;55.026;61.042;2023-05-10T04:01:31;8.60;48.10
45489;DHT22;31236;55.026;61.042;2023-05-10T04:04:01;8.80;47.20
45489;DHT22;31236;55.026;61.042;2023-05-10T04:06:31;8.90;46.80
45489;DHT22;31236;55.026;61.042;2023-05-10T04:09:01;9.00;46.70
45489;DHT22;31236;55.026;61.042;2023-05-10T04:11:31;9.10;46.30
45489;DHT22;31236;55.026;61.042;2023-05-10T04:14:01;9.30;45.80
45489;DHT22;31236;55.026;61.042;2023-05-10T04:16:35;9.50;44.80
45489;DHT22;31236;55.026;61.042;2023-05-10T04:19:05;9.50;44.30
45489;DHT22;31236;55.026;61.042;2023-05-10T04:21:35;9.60;44.00
45489;DHT22;31236;55.026;61.042;2023-05-10T04:24:06;9.80;43.70
45489;DHT22;31236;55.026;61.042;2023-05-10T04:26:36;9.90;42.70
45489;DHT22;31236;55.026;61.042;2023-05-10T04:29:07;10.10;42.20
45489;DHT22;31236;55.026;61.042;2023-05-10T04:31:37;10.20;41.50
45489;DHT22;31236;55.026;61.042;2023-05-10T04:34:07;10.30;41.20
45489;DHT22;31236;55.026;61.042;2023-05-10T04:36:37;10.40;41.50
45489;DHT22;31236;55.026;61.042;2023-05-10T04:39:07;10.50;41.30
45489;DHT22;31236;55.026;61.042;2023-05-10T04:41:38;10.50;40.90
45489;DHT22;31236;55.026;61.042;2023-05-10T04:44:08;10.60;40.20
45489;DHT22;31236;55.026;61.042;2023-05-10T04:46:38;10.70;40.10
45489;DHT22;31236;55.026;61.042;2023-05-10T04:49:08;10.80;39.70
45489;DHT22;31236;55.026;61.042;2023-05-10T04:51:42;10.90;38.70
45489;DHT22;31236;55.026;61.042;2023-05-10T04:54:11;11.00;38.60
45489;DHT22;31236;55.026;61.042;2023-05-10T04:56:41;11.20;37.40
45489;DHT22;31236;55.026;61.042;2023-05-10T04:59:11;11.30;36.90
45489;DHT22;31236;55.026;61.042;2023-05-10T05:01:40;11.40;36.70
45489;DHT22;31236;55.026;61.042;2023-05-10T05:04:10;11.50;35.90
45489;DHT22;31236;55.026;61.042;2023-05-10T05:06:41;11.70;35.30
45489;DHT22;31236;55.026;61.042;2023-05-10T05:09:11;11.70;33.40
45489;DHT22;31236;55.026;61.042;2023-05-10T05:11:41;11.80;33.70
45489;DHT22;31236;55.026;61.042;2023-05-10T05:14:11;11.80;33.70
45489;DHT22;31236;55.026;61.042;2023-05-10T05:16:42;11.90;34.30
45489;DHT22;31236;55.026;61.042;2023-05-10T05:19:12;11.80;34.30
45489;DHT22;31236;55.026;61.042;2023-05-10T05:21:42;11.90;33.70
45489;DHT22;31236;55.026;61.042;2023-05-10T05:24:12;12.00;33.40
45489;DHT22;31236;55.026;61.042;2023-05-10T05:26:42;12.10;33.10
45489;DHT22;31236;55.026;61.042;2023-05-10T05:29:12;12.10;33.50
45489;DHT22;31236;55.026;61.042;2023-05-10T05:31:41;12.20;33.00
45489;DHT22;31236;55.026;61.042;2023-05-10T05:34:11;12.20;33.30
45489;DHT22;31236;55.026;61.042;2023-05-10T05:36:41;12.30;33.20
45489;DHT22;31236;55.026;61.042;2023-05-10T05:39:11;12.30;33.30
45489;DHT22;31236;55.026;61.042;2023-05-10T05:41:41;12.40;32.80
45489;DHT22;31236;55.026;61.042;2023-05-10T05:44:11;12.50;33.60
45489;DHT22;31236;55.026;61.042;2023-05-10T05:46:41;12.50;32.80
45489;DHT22;31236;55.026;61.042;2023-05-10T05:49:10;12.70;33.60
45489;DHT22;31236;55.026;61.042;2023-05-10T05:51:40;12.70;33.00
45489;DHT22;31236;55.026;61.042;2023-05-10T05:54:10;12.70;33.10
45489;DHT22;31236;55.026;61.042;2023-05-10T05:56:40;12.70;33.10
45489;DHT22;31236;55.026;61.042;2023-05-10T05:59:11;12.70;33.10
45489;DHT22;31236;55.026;61.042;2023-05-10T06:01:41;12.80;32.30
45489;DHT22;31236;55.026;61.042;2023-05-10T06:04:11;12.90;31.50
45489;DHT22;31236;55.026;61.042;2023-05-10T06:06:41;12.90;32.40
45489;DHT22;31236;55.026;61.042;2023-05-10T06:09:11;13.00;32.70
45489;DHT22;31236;55.026;61.042;2023-05-10T06:11:41;13.10;31.70
45489;DHT22;31236;55.026;61.042;2023-05-10T06:14:10;13.10;31.50
45489;DHT22;31236;55.026;61.042;2023-05-10T06:16:40;13.10;31.30
45489;DHT22;31236;55.026;61.042;2023-05-10T06:19:10;13.10;31.60
45489;DHT22;31236;55.026;61.042;2023-05-10T06:21:40;13.20;31.70
45489;DHT22;31236;55.026;61.042;2023-05-10T06:24:10;13.30;31.70
45489;DHT22;31236;55.026;61.042;2023-05-10T06:26:39;13.20;31.70
45489;DHT22;31236;55.026;61.042;2023-05-10T06:29:09;13.30;31.50
45489;DHT22;31236;55.026;61.042;2023-05-10T06:31:39;13.40;31.50
45489;DHT22;31236;55.026;61.042;2023-05-10T06:34:09;13.40;31.60
45489;DHT22;31236;55.026;61.042;2023-05-10T06:36:41;13.40;31.30
45489;DHT22;31236;55.026;61.042;2023-05-10T06:39:10;13.40;31.20
45489;DHT22;31236;55.026;61.042;2023-05-10T06:41:40;13.40;31.80
45489;DHT22;31236;55.026;61.042;2023-05-10T06:44:10;13.50;31.80
45489;DHT22;31236;55.026;61.042;2023-05-10T06:46:40;13.50;31.90
45489;DHT22;31236;55.026;61.042;2023-05-10T06:49:10;13.60;32.20
45489;DHT22;31236;55.026;61.042;2023-05-10T06:51:40;13.80;31.80
45489;DHT22;31236;55.026;61.042;2023-05-10T06:54:09;13.70;30.40
45489;DHT22;31236;55.026;61.042;2023-05-10T06:56:39;13.70;30.50
45489;DHT22;31236;55.026;61.042;2023-05-10T06:59:10;13.70;30.40
45489;DHT22;31236;55.026;61.042;2023-05-10T07:01:40;13.70;30.80
45489;DHT22;31236;55.026;61.042;2023-05-10T07:04:10;13.80;31.30
45489;DHT22;31236;55.026;61.042;2023-05-10T07:06:40;13.70;30.90
45489;DHT22;31236;55.026;61.042;2023-05-10T07:09:10;13.70;30.30
45489;DHT22;31236;55.026;61.042;2023-05-10T07:11:40;13.80;30.50
45489;DHT22;31236;55.026;61.042;2023-05-10T07:14:10;13.70;29.60
45489;DHT22;31236;55.026;61.042;2023-05-10T07:16:40;13.80;29.90
45489;DHT22;31236;55.026;61.042;2023-05-10T07:19:09;13.80;30.10
45489;DHT22;31236;55.026;61.042;2023-05-10T07:21:39;13.90;30.20
45489;DHT22;31236;55.026;61.042;2023-05-10T07:24:10;13.90;29.90
45489;DHT22;31236;55.026;61.042;2023-05-10T07:26:40;14.00;30.00
45489;DHT22;31236;55.026;61.042;2023-05-10T07:29:10;14.00;29.50
45489;DHT22;31236;55.026;61.042;2023-05-10T07:31:39;14.00;29.60
45489;DHT22;31236;55.026;61.042;2023-05-10T07:34:09;14.00;29.80
45489;DHT22;31236;55.026;61.042;2023-05-10T07:36:39;14.00;30.10
45489;DHT22;31236;55.026;61.042;2023-05-10T07:39:09;14.00;29.30
45489;DHT22;31236;55.026;61.042;2023-05-10T07:41:39;14.00;29.40
45489;DHT22;31236;55.026;61.042;2023-05-10T07:44:09;14.10;29.80
45489;DHT22;31236;55.026;61.042;2023-05-10T07:46:39;14.10;29.80
45489;DHT22;31236;55.026;61.042;2023-05-10T07:49:08;14.20;30.00
45489;DHT22;31236;55.026;61.042;2023-05-10T07:51:38;14.20;30.30
45489;DHT22;31236;55.026;61.042;2023-05-10T07:54:09;14.30;30.00
45489;DHT22;31236;55.026;61.042;2023-05-10T07:56:39;14.40;30.00
45489;DHT22;31236;55.026;61.042;2023-05-10T08:02:01;14.50;29.30
45489;DHT22;31236;55.026;61.042;2023-05-10T08:04:31;14.50;29.20
45489;DHT22;31236;55.026;61.042;2023-05-10T08:07:01;14.50;29.50
45489;DHT22;31236;55.026;61.042;2023-05-10T08:09:30;14.60;29.70
45489;DHT22;31236;55.026;61.042;2023-05-10T08:12:00;14.70;29.50
45489;DHT22;31236;55.026;61.042;2023-05-10T08:14:30;14.70;29.20
45489;DHT22;31236;55.026;61.042;2023-05-10T08:17:00;14.70;29.00
45489;DHT22;31236;55.026;61.042;2023-05-10T08:19:31;14.70;29.10
45489;DHT22;31236;55.026;61.042;2023-05-10T08:22:01;14.60;28.90
45489;DHT22;31236;55.026;61.042;2023-05-10T08:24:30;14.70;29.10
45489;DHT22;31236;55.026;61.042;2023-05-10T08:27:02;14.60;29.30
45489;DHT22;31236;55.026;61.042;2023-05-10T08:29:32;14.50;28.90
45489;DHT22;31236;55.026;61.042;2023-05-10T08:32:01;14.50;28.90
45489;DHT22;31236;55.026;61.042;2023-05-10T08:34:32;14.50;29.50
45489;DHT22;31236;55.026;61.042;2023-05-10T08:37:01;14.40;28.80
45489;DHT22;31236;55.026;61.042;2023-05-10T08:42:23;14.40;29.30
45489;DHT22;31236;55.026;61.042;2023-05-10T08:44:55;14.40;29.30
45489;DHT22;31236;55.026;61.042;2023-05-10T08:47:25;14.40;29.40
45489;DHT22;31236;55.026;61.042;2023-05-10T08:49:56;14.40;29.00
45489;DHT22;31236;55.026;61.042;2023-05-10T08:52:27;14.50;29.00
45489;DHT22;31236;55.026;61.042;2023-05-10T08:54:57;14.50;29.40
45489;DHT22;31236;55.026;61.042;2023-05-10T08:57:27;14.50;29.20
45489;DHT22;31236;55.026;61.042;2023-05-10T08:59:57;14.50;29.00
45489;DHT22;31236;55.026;61.042;2023-05-10T09:02:27;14.60;28.70
45489;DHT22;31236;55.026;61.042;2023-05-10T09:04:57;14.50;29.10
45489;DHT22;31236;55.026;61.042;2023-05-10T09:07:27;14.50;29.50
45489;DHT22;31236;55.026;61.042;2023-05-10T09:09:57;14.70;29.60
45489;DHT22;31236;55.026;61.042;2023-05-10T09:12:27;14.70;29.50
45489;DHT22;31236;55.026;61.042;2023-05-10T09:14:59;14.70;29.30
45489;DHT22;31236;55.026;61.042;2023-05-10T09:17:29;14.70;29.40
45489;DHT22;31236;55.026;61.042;2023-05-10T09:20:19;14.80;29.10
45489;DHT22;31236;55.026;61.042;2023-05-10T09:22:49;14.80;29.30
45489;DHT22;31236;55.026;61.042;2023-05-10T09:25:20;14.90;29.30
45489;DHT22;31236;55.026;61.042;2023-05-10T09:27:49;14.90;28.70
45489;DHT22;31236;55.026;61.042;2023-05-10T09:30:39;14.90;28.30
45489;DHT22;31236;55.026;61.042;2023-05-10T09:33:10;14.90;28.70
45489;DHT22;31236;55.026;61.042;2023-05-10T09:35:39;14.90;29.00
45489;DHT22;31236;55.026;61.042;2023-05-10T09:38:09;14.90;28.70
45489;DHT22;31236;55.026;61.042;2023-05-10T09:40:39;14.90;28.80
45489;DHT22;31236;55.026;61.042;2023-05-10T09:43:09;14.90;28.70
45489;DHT22;31236;55.026;61.042;2023-05-10T09:45:40;14.90;28.50
45489;DHT22;31236;55.026;61.042;2023-05-10T09:48:11;15.00;28.60
45489;DHT22;31236;55.026;61.042;2023-05-10T09:50:41;15.00;28.60
45489;DHT22;31236;55.026;61.042;2023-05-10T09:53:14;15.10;28.20
45489;DHT22;31236;55.026;61.042;2023-05-10T09:55:44;15.10;28.30
45489;DHT22;31236;55.026;61.042;2023-05-10T09:58:16;15.10;28.50
45489;DHT22;31236;55.026;61.042;2023-05-10T10:00:46;15.20;28.30
45489;DHT22;31236;55.026;61.042;2023-05-10T10:03:18;15.10;27.80
45489;DHT22;31236;55.026;61.042;2023-05-10T10:05:49;15.10;28.20
45489;DHT22;31236;55.026;61.042;2023-05-10T10:08:20;15.10;28.80
45489;DHT22;31236;55.026;61.042;2023-05-10T10:10:50;15.10;29.00
45489;DHT22;31236;55.026;61.042;2023-05-10T10:13:20;15.10;29.10
45489;DHT22;31236;55.026;61.042;2023-05-10T10:15:50;15.20;29.10
45489;DHT22;31236;55.026;61.042;2023-05-10T10:18:21;15.30;28.80
45489;DHT22;31236;55.026;61.042;2023-05-10T10:20:53;15.40;28.60
45489;DHT22;31236;55.026;61.042;2023-05-10T10:23:23;15.40;28.80
45489;DHT22;31236;55.026;61.042;2023-05-10T10:25:55;15.40;28.80
45489;DHT22;31236;55.026;61.042;2023-05-10T10:34:45;15.60;28.50
45489;DHT22;31236;55.026;61.042;2023-05-10T10:37:14;15.70;28.70
45489;DHT22;31236;55.026;61.042;2023-05-10T10:39:44;15.70;28.60
45489;DHT22;31236;55.026;61.042;2023-05-10T10:42:43;15.70;28.70
45489;DHT22;31236;55.026;61.042;2023-05-10T10:44:47;15.60;28.40
45489;DHT22;31236;55.026;61.042;2023-05-10T10:47:36;15.50;28.80
45489;DHT22;31236;55.026;61.042;2023-05-10T10:50:06;15.50;28.70
45489;DHT22;31236;55.026;61.042;2023-05-10T10:52:57;15.40;28.70
45489;DHT22;31236;55.026;61.042;2023-05-10T10:55:29;15.40;28.90
45489;DHT22;31236;55.026;61.042;2023-05-10T10:57:59;15.40;28.90
45489;DHT22;31236;55.026;61.042;2023-05-10T11:00:33;15.40;28.80
45489;DHT22;31236;55.026;61.042;2023-05-10T11:03:23;15.40;28.50
45489;DHT22;31236;55.026;61.042;2023-05-10T11:05:57;15.50;28.40
45489;DHT22;31236;55.026;61.042;2023-05-10T11:08:29;15.40;27.80
45489;DHT22;31236;55.026;61.042;2023-05-10T11:13:52;15.30;27.70
45489;DHT22;31236;55.026;61.042;2023-05-10T11:16:24;15.20;28.10
45489;DHT22;31236;55.026;61.042;2023-05-10T11:19:14;15.10;28.70
45489;DHT22;31236;55.026;61.042;2023-05-10T11:24:35;15.20;28.20
45489;DHT22;31236;55.026;61.042;2023-05-10T11:27:06;15.30;28.20
45489;DHT22;31236;55.026;61.042;2023-05-10T11:29:36;15.20;27.70
45489;DHT22;31236;55.026;61.042;2023-05-10T11:32:06;15.30;27.90
45489;DHT22;31236;55.026;61.042;2023-05-10T11:34:36;15.40;27.80
45489;DHT22;31236;55.026;61.042;2023-05-10T11:37:06;15.40;27.50
45489;DHT22;31236;55.026;61.042;2023-05-10T11:39:36;15.60;27.50
45489;DHT22;31236;55.026;61.042;2023-05-10T11:42:06;15.70;26.80
45489;DHT22;31236;55.026;61.042;2023-05-10T11:44:37;15.70;26.90
45489;DHT22;31236;55.026;61.042;2023-05-10T11:47:09;15.90;27.10
45489;DHT22;31236;55.026;61.042;2023-05-10T11:55:23;16.20;27.50
45489;DHT22;31236;55.026;61.042;2023-05-10T11:57:54;16.20;27.70
45489;DHT22;31236;55.026;61.042;2023-05-10T12:00:24;16.30;27.60
45489;DHT22;31236;55.026;61.042;2023-05-10T12:02:54;16.40;27.60
45489;DHT22;31236;55.026;61.042;2023-05-10T12:05:26;16.50;28.00
45489;DHT22;31236;55.026;61.042;2023-05-10T12:10:47;16.50;27.90
45489;DHT22;31236;55.026;61.042;2023-05-10T12:13:18;16.40;27.60
45489;DHT22;31236;55.026;61.042;2023-05-10T12:15:49;16.40;27.80
45489;DHT22;31236;55.026;61.042;2023-05-10T12:18:22;16.30;27.50
45489;DHT22;31236;55.026;61.042;2023-05-10T12:21:11;16.20;27.50
45489;DHT22;31236;55.026;61.042;2023-05-10T12:23:41;16.20;27.60
45489;DHT22;31236;55.026;61.042;2023-05-10T12:26:11;16.20;27.70
45489;DHT22;31236;55.026;61.042;2023-05-10T12:28:41;16.20;27.80
45489;DHT22;31236;55.026;61.042;2023-05-10T12:31:11;16.20;27.80
45489;DHT22;31236;55.026;61.042;2023-05-10T12:33:44;16.20;27.60
45489;DHT22;31236;55.026;61.042;2023-05-10T12:36:16;16.30;27.30
45489;DHT22;31236;55.026;61.042;2023-05-10T12:38:48;16.20;27.20
45489;DHT22;31236;55.026;61.042;2023-05-10T12:41:19;16.10;27.30
45489;DHT22;31236;55.026;61.042;2023-05-10T12:43:49;16.00;27.80
45489;DHT22;31236;55.026;61.042;2023-05-10T12:46:21;16.00;27.50
45489;DHT22;31236;55.026;61.042;2023-05-10T12:48:52;15.90;28.60
45489;DHT22;31236;55.026;61.042;2023-05-10T12:51:23;15.70;30.90
45489;DHT22;31236;55.026;61.042;2023-05-10T12:53:54;15.50;33.30
45489;DHT22;31236;55.026;61.042;2023-05-10T12:56:25;15.40;34.70
45489;DHT22;31236;55.026;61.042;2023-05-10T12:58:55;15.30;35.20
45489;DHT22;31236;55.026;61.042;2023-05-10T13:01:25;15.10;35.70
45489;DHT22;31236;55.026;61.042;2023-05-10T13:03:55;15.00;36.40
45489;DHT22;31236;55.026;61.042;2023-05-10T13:06:24;15.00;36.60
45489;DHT22;31236;55.026;61.042;2023-05-10T13:08:54;14.90;36.80
45489;DHT22;31236;55.026;61.042;2023-05-10T13:11:25;15.10;37.00
45489;DHT22;31236;55.026;61.042;2023-05-10T13:13:55;15.20;37.00
45489;DHT22;31236;55.026;61.042;2023-05-10T13:16:26;15.20;36.90
45489;DHT22;31236;55.026;61.042;2023-05-10T13:18:56;15.20;37.20
45489;DHT22;31236;55.026;61.042;2023-05-10T13:21:26;15.30;37.20
45489;DHT22;31236;55.026;61.042;2023-05-10T13:23:56;15.30;37.10
45489;DHT22;31236;55.026;61.042;2023-05-10T13:26:26;15.30;37.30
45489;DHT22;31236;55.026;61.042;2023-05-10T13:28:55;15.20;37.30
45489;DHT22;31236;55.026;61.042;2023-05-10T13:31:25;15.20;37.20
45489;DHT22;31236;55.026;61.042;2023-05-10T13:33:56;15.10;37.20
45489;DHT22;31236;55.026;61.042;2023-05-10T13:36:25;15.00;37.30
45489;DHT22;31236;55.026;61.042;2023-05-10T13:38:55;15.00;37.30
45489;DHT22;31236;55.026;61.042;2023-05-10T13:41:25;15.00;37.20
45489;DHT22;31236;55.026;61.042;2023-05-10T13:43:55;14.90;37.30
45489;DHT22;31236;55.026;61.042;2023-05-10T13:46:24;14.90;37.70
45489;DHT22;31236;55.026;61.042;2023-05-10T13:48:54;14.90;38.60
45489;DHT22;31236;55.026;61.042;2023-05-10T13:51:24;14.80;39.00
45489;DHT22;31236;55.026;61.042;2023-05-10T13:53:54;14.80;39.50
45489;DHT22;31236;55.026;61.042;2023-05-10T13:56:24;14.80;39.60
45489;DHT22;31236;55.026;61.042;2023-05-10T13:58:53;14.70;39.90
45489;DHT22;31236;55.026;61.042;2023-05-10T14:01:24;14.60;40.20
45489;DHT22;31236;55.026;61.042;2023-05-10T14:03:54;14.50;40.50
45489;DHT22;31236;55.026;61.042;2023-05-10T14:06:23;14.50;40.60
45489;DHT22;31236;55.026;61.042;2023-05-10T14:08:54;14.60;40.60
45489;DHT22;31236;55.026;61.042;2023-05-10T14:11:24;14.60;40.60
45489;DHT22;31236;55.026;61.042;2023-05-10T14:13:54;14.50;40.70
45489;DHT22;31236;55.026;61.042;2023-05-10T14:16:23;14.50;40.30
45489;DHT22;31236;55.026;61.042;2023-05-10T14:18:54;14.50;40.10
45489;DHT22;31236;55.026;61.042;2023-05-10T14:21:24;14.40;40.10
45489;DHT22;31236;55.026;61.042;2023-05-10T14:23:55;14.40;40.20
45489;DHT22;31236;55.026;61.042;2023-05-10T14:26:25;14.30;40.50
45489;DHT22;31236;55.026;61.042;2023-05-10T14:28:55;14.30;40.40
45489;DHT22;31236;55.026;61.042;2023-05-10T14:31:26;14.20;40.50
45489;DHT22;31236;55.026;61.042;2023-05-10T14:33:57;14.20;40.90
45489;DHT22;31236;55.026;61.042;2023-05-10T14:36:27;14.00;41.10
45489;DHT22;31236;55.026;61.042;2023-05-10T14:38:56;13.90;41.20
45489;DHT22;31236;55.026;61.042;2023-05-10T14:41:26;13.80;41.50
45489;DHT22;31236;55.026;61.042;2023-05-10T14:43:57;13.70;41.80
45489;DHT22;31236;55.026;61.042;2023-05-10T14:46:27;13.60;42.00
45489;DHT22;31236;55.026;61.042;2023-05-10T14:48:56;13.50;42.10
45489;DHT22;31236;55.026;61.042;2023-05-10T14:51:26;13.40;42.80
45489;DHT22;31236;55.026;61.042;2023-05-10T14:53:56;13.30;42.80
45489;DHT22;31236;55.026;61.042;2023-05-10T14:56:26;13.30;43.00
45489;DHT22;31236;55.026;61.042;2023-05-10T14:58:56;13.20;43.20
45489;DHT22;31236;55.026;61.042;2023-05-10T15:01:27;13.10;43.20
45489;DHT22;31236;55.026;61.042;2023-05-10T15:03:58;13.00;43.60
45489;DHT22;31236;55.026;61.042;2023-05-10T15:06:48;13.00;43.70
45489;DHT22;31236;55.026;61.042;2023-05-10T15:09:17;12.90;44.10
45489;DHT22;31236;55.026;61.042;2023-05-10T15:11:47;12.80;44.20
45489;DHT22;31236;55.026;61.042;2023-05-10T15:14:17;12.80;44.30
45489;DHT22;31236;55.026;61.042;2023-05-10T15:16:47;12.70;44.50
45489;DHT22;31236;55.026;61.042;2023-05-10T15:19:17;12.60;44.70
45489;DHT22;31236;55.026;61.042;2023-05-10T15:21:47;12.50;44.80
45489;DHT22;31236;55.026;61.042;2023-05-10T15:24:16;12.50;45.10
45489;DHT22;31236;55.026;61.042;2023-05-10T15:26:46;12.40;45.40
45489;DHT22;31236;55.026;61.042;2023-05-10T15:29:16;12.30;45.50
45489;DHT22;31236;55.026;61.042;2023-05-10T15:32:06;12.20;45.70
45489;DHT22;31236;55.026;61.042;2023-05-10T15:34:36;12.10;46.10
45489;DHT22;31236;55.026;61.042;2023-05-10T15:37:06;12.00;46.10
45489;DHT22;31236;55.026;61.042;2023-05-10T15:39:35;11.90;46.40
45489;DHT22;31236;55.026;61.042;2023-05-10T15:58:29;11.50;47.80
45489;DHT22;31236;55.026;61.042;2023-05-10T16:00:59;11.00;49.20
45489;DHT22;31236;55.026;61.042;2023-05-10T16:03:30;10.70;49.10
45489;DHT22;31236;55.026;61.042;2023-05-10T16:06:00;10.60;49.40
45489;DHT22;31236;55.026;61.042;2023-05-10T16:08:30;10.50;49.80
45489;DHT22;31236;55.026;61.042;2023-05-10T16:11:00;10.40;50.00
45489;DHT22;31236;55.026;61.042;2023-05-10T16:13:30;10.30;50.10
45489;DHT22;31236;55.026;61.042;2023-05-10T16:16:00;10.20;50.50
45489;DHT22;31236;55.026;61.042;2023-05-10T16:21:01;9.80;51.40
45489;DHT22;31236;55.026;61.042;2023-05-10T16:23:31;9.60;51.70
45489;DHT22;31236;55.026;61.042;2023-05-10T16:26:01;9.50;52.10
45489;DHT22;31236;55.026;61.042;2023-05-10T16:28:51;9.40;52.30
45489;DHT22;31236;55.026;61.042;2023-05-10T16:31:21;9.40;52.50
45489;DHT22;31236;55.026;61.042;2023-05-10T16:33:51;9.20;52.60
45489;DHT22;31236;55.026;61.042;2023-05-10T16:36:24;9.20;53.10
45489;DHT22;31236;55.026;61.042;2023-05-10T16:39:01;9.00;53.40
45489;DHT22;31236;55.026;61.042;2023-05-10T16:41:50;9.00;53.60
45489;DHT22;31236;55.026;61.042;2023-05-10T16:44:21;8.80;53.80
45489;DHT22;31236;55.026;61.042;2023-05-10T16:46:51;8.70;54.10
45489;DHT22;31236;55.026;61.042;2023-05-10T16:49:21;8.60;54.50
45489;DHT22;31236;55.026;61.042;2023-05-10T16:51:50;8.50;54.90
45489;DHT22;31236;55.026;61.042;2023-05-10T16:54:20;8.40;55.30
45489;DHT22;31236;55.026;61.042;2023-05-10T16:56:49;8.30;55.50